Portada
METAR-TAF:

METAR-TAF

Aeropuertos :

Aeropuerto Internacional Hato

Curazao, Antillas Neerlandesas

latitud: 12-12N, longitud: 068-58W, altitud: 9 m

Observación

El informe se hizo hace 10 horas y 47 minutos, a las 05:00 UTC
Viento 13 kt del este-sureste
Temperatura 28°C
Humedad 79%
Presión 1015 hPa
Visibilidad 10 km o más
Nubes dispersas a una altura de 2000 ft

METAR: TNCC 210500Z AUTO 11013KT 9999 SCT020 28/24 Q1015 NOSIG

Hora: 11:47 (15:47 UTC)

Pronóstico

El informe se hizo hace 11 horas y 57 minutos, a las 03:50 UTC
Pronóstico válido del 21 a las 06 UTC al 22 a las 06 UTC
Viento 12 kt del este-sureste
Visibilidad 10 km o más
Escasas nubes a una altura de 1800 ft
Temporalmente
del 21 a las 10 UTC al 21 a las 16 UTC
Cielo nuboso a una altura de 1500 ft
Temporalmente
del 21 a las 16 UTC al 22 a las 04 UTC
Viento 14 kt del este-sureste con ráfagas de 25 kt

TAF: TNCC 210350Z 2106/2206 11012KT 9999 FEW018 TEMPO 2110/2116 BKN015 TEMPO 2116/2204 11014G25KT

Observaciones y pronósticos meteorológicos de más de 4000 aeropuertos (mensajes METAR y TAF).

Los puntos amarillos y rojos representan las estaciones disponibles.

Ponga el ratón en el punto deseado para ver el nombre de la estación.

Haga clic para ver las observaciones y los pronósticos meteorológicos.

Para cambiar el mapa : haga clic en los botones verdes con una cruz de color negro para hacer un zoom, en el botón verde con un guión para alejar o en las flechas verdes para mapas adyacentes.


METAR-TAF: